Time;durP1;ratioP1;P1;durP2;ratioP2;P2;SDS_P1;SDS_P2;PMS_P1;PMS_P2;Temp;Humidity;BMP_temperature;BMP_pressure;BME280_temperature;BME280_humidity;BME280_pressure;Samples;Min_cycle;Max_cycle;Signal;HPM_P1;HPM_P2
2021/09/22 00:00:45;;;;;;;6.30;2.10;;;;;;;8.91;94.49;99032.31;5075246;28;20572;-55
2021/09/22 00:03:11;;;;;;;3.38;2.03;;;;;;;8.89;93.92;99036.75;5072213;28;20059;-56
2021/09/22 00:05:37;;;;;;;5.45;2.20;;;;;;;8.83;94.25;99027.44;5071204;28;20583;-56
2021/09/22 00:08:03;;;;;;;2.70;1.92;;;;;;;8.84;94.19;99026.56;5089500;28;20028;-56
2021/09/22 00:10:29;;;;;;;4.43;2.08;;;;;;;8.89;94.07;99034.16;5072702;28;20051;-52
2021/09/22 00:12:55;;;;;;;3.80;2.03;;;;;;;8.89;94.77;99034.16;5090383;28;20097;-57
2021/09/22 00:15:22;;;;;;;3.42;2.30;;;;;;;8.85;94.53;99025.63;5055548;28;20048;-52
2021/09/22 00:17:48;;;;;;;3.88;1.90;;;;;;;8.84;94.44;99031.72;5060260;28;20036;-57
2021/09/22 00:20:15;;;;;;;3.75;2.28;;;;;;;8.77;94.45;99024.25;5089633;28;20040;-53
2021/09/22 00:22:42;;;;;;;2.92;2.25;;;;;;;8.76;94.91;99023.38;5071714;28;20092;-51
2021/09/22 00:25:09;;;;;;;4.28;2.00;;;;;;;8.68;95.02;99014.22;5048028;28;20047;-53
2021/09/22 00:27:35;;;;;;;3.60;2.10;;;;;;;8.74;95.17;99017.41;5086979;28;20085;-54
2021/09/22 00:30:08;;;;;;;3.38;2.00;;;;;;;8.72;95.14;99020.97;5054298;28;20040;-51
2021/09/22 00:32:34;;;;;;;3.63;2.20;;;;;;;8.76;94.93;99025.13;5078176;28;20507;-53
2021/09/22 00:35:00;;;;;;;5.50;2.30;;;;;;;8.75;94.97;99028.63;5079248;28;20074;-54
2021/09/22 00:37:25;;;;;;;2.90;1.98;;;;;;;8.78;95.04;99024.19;5083168;28;20052;-53
2021/09/22 00:39:51;;;;;;;3.60;2.28;;;;;;;8.69;95.00;99008.16;5072651;28;20564;-53
2021/09/22 00:42:17;;;;;;;4.13;1.90;;;;;;;8.77;95.37;99019.91;5088716;28;20040;-53
2021/09/22 00:44:55;;;;;;;5.18;2.63;;;;;;;8.75;95.05;99023.44;5092680;28;20059;-53
2021/09/22 00:47:22;;;;;;;3.03;2.28;;;;;;;8.72;94.56;99021.81;5081612;28;20237;-51
2021/09/22 00:49:48;;;;;;;3.88;2.60;;;;;;;8.73;94.84;99014.88;5055312;28;20132;-55
2021/09/22 00:52:18;;;;;;;5.10;2.63;;;;;;;8.74;94.61;99021.78;5072023;28;20123;-52
2021/09/22 00:54:44;;;;;;;3.25;2.50;;;;;;;8.71;95.04;99008.91;5072824;28;20040;-53
2021/09/22 00:57:20;;;;;;;3.42;2.38;;;;;;;8.70;94.77;99018.44;5073417;28;20455;-53
2021/09/22 00:59:45;;;;;;;6.55;2.85;;;;;;;8.70;94.97;99015.00;5072993;28;20039;-54
2021/09/22 01:02:11;;;;;;;5.07;2.50;;;;;;;8.71;95.34;99011.50;5083114;28;20052;-54
2021/09/22 01:04:38;;;;;;;5.05;2.65;;;;;;;8.69;95.26;99006.38;5073051;28;20055;-56
2021/09/22 01:07:06;;;;;;;3.55;2.25;;;;;;;8.67;95.20;99008.19;5070915;28;20048;-53
2021/09/22 01:09:32;;;;;;;4.30;3.03;;;;;;;8.64;94.84;98991.88;5085523;28;20048;-59
2021/09/22 01:11:58;;;;;;;3.83;2.67;;;;;;;8.69;94.92;99008.16;5082756;28;20081;-58
2021/09/22 01:14:25;;;;;;;5.10;2.95;;;;;;;8.76;94.91;99009.59;5082850;28;20044;-54
2021/09/22 01:16:51;;;;;;;5.55;2.70;;;;;;;8.76;94.45;99001.81;5072079;28;20040;-50
2021/09/22 01:19:19;;;;;;;3.83;2.90;;;;;;;8.75;94.80;98998.38;5077805;28;20535;-50
2021/09/22 01:21:52;;;;;;;4.30;2.88;;;;;;;8.75;95.03;99007.88;5054585;28;20044;-50
2021/09/22 01:24:20;;;;;;;3.22;2.33;;;;;;;8.72;94.92;98998.50;5053955;28;20424;-51
2021/09/22 01:26:48;;;;;;;3.17;2.55;;;;;;;8.73;94.47;98999.34;5074766;28;20567;-54
2021/09/22 01:29:14;;;;;;;3.72;2.60;;;;;;;8.63;93.79;98982.47;5054107;28;20105;-49
2021/09/22 01:31:44;;;;;;;4.50;2.97;;;;;;;8.72;94.21;99005.44;5055394;28;20527;-52
2021/09/22 01:34:12;;;;;;;4.53;3.05;;;;;;;8.69;94.06;98993.41;5071434;28;20048;-51
2021/09/22 01:36:57;;;;;;;4.57;3.03;;;;;;;8.68;94.91;98991.75;5070917;28;20048;-49
2021/09/22 01:39:38;;;;;;;5.28;3.13;;;;;;;8.71;94.93;98993.38;5053725;28;20029;-52
2021/09/22 01:42:06;;;;;;;4.35;3.00;;;;;;;8.71;94.87;98991.63;5076283;28;20530;-54
2021/09/22 01:44:35;;;;;;;4.60;3.28;;;;;;;8.72;95.18;98987.28;5050128;28;20043;-52
2021/09/22 01:47:10;;;;;;;6.13;2.70;;;;;;;8.71;94.65;98994.22;5083674;28;20062;-49
2021/09/22 01:50:14;;;;;;;5.07;2.80;;;;;;;8.70;94.06;98991.66;5070179;28;20518;-56
2021/09/22 01:52:42;;;;;;;5.10;3.42;;;;;;;8.69;94.31;98992.59;5070742;28;20037;-53
2021/09/22 01:55:19;;;;;;;3.75;2.90;;;;;;;8.68;94.53;98996.09;5069945;28;20040;-56
2021/09/22 01:57:48;;;;;;;5.43;3.20;;;;;;;8.65;94.75;98991.00;5059319;28;20142;-57
2021/09/22 02:00:24;;;;;;;5.20;2.72;;;;;;;8.64;94.65;98994.47;5070330;28;20127;-54
2021/09/22 02:02:49;;;;;;;4.45;3.00;;;;;;;8.63;94.30;98993.66;5070464;28;20131;-59
2021/09/22 02:05:24;;;;;;;7.20;2.83;;;;;;;8.62;94.63;98991.97;5054727;28;20041;-55
2021/09/22 02:08:19;;;;;;;5.38;2.70;;;;;;;8.64;94.41;98997.06;5057026;28;20052;-58
2021/09/22 02:10:47;;;;;;;4.70;2.63;;;;;;;8.58;94.21;98982.63;5070510;28;20048;-52
2021/09/22 02:13:16;;;;;;;6.05;2.25;;;;;;;8.63;94.25;98996.25;5091389;28;20097;-53
2021/09/22 02:15:42;;;;;;;4.82;2.60;;;;;;;8.61;94.14;98992.03;5061817;28;20404;-50
2021/09/22 02:18:27;;;;;;;4.07;2.35;;;;;;;8.59;94.29;98989.47;5091772;28;20090;-53
2021/09/22 02:20:56;;;;;;;5.03;3.03;;;;;;;8.52;94.14;98985.44;5069842;28;20036;-50
2021/09/22 02:23:25;;;;;;;3.78;2.70;;;;;;;8.57;94.07;98996.47;5054047;28;20097;-51
2021/09/22 02:25:54;;;;;;;3.40;2.40;;;;;;;8.57;94.14;98996.47;5084777;28;20032;-48
2021/09/22 02:28:20;;;;;;;3.67;2.67;;;;;;;8.57;94.14;98995.63;5090305;28;20043;-48
2021/09/22 02:30:47;;;;;;;4.22;2.72;;;;;;;8.55;93.97;98994.84;5075502;28;20051;-53
2021/09/22 02:33:13;;;;;;;4.95;2.70;;;;;;;8.55;93.39;98995.69;5069632;28;20121;-52
2021/09/22 02:35:40;;;;;;;6.00;2.72;;;;;;;8.51;93.86;98988.94;5070021;28;20036;-54
2021/09/22 02:38:16;;;;;;;3.40;2.30;;;;;;;8.40;93.43;98978.97;5049371;28;20418;-54
2021/09/22 02:40:46;;;;;;;6.18;2.60;;;;;;;8.43;93.44;98993.53;5085624;28;20040;-56
2021/09/22 02:43:12;;;;;;;2.88;2.08;;;;;;;8.37;93.39;98992.00;5069524;28;20052;-51
2021/09/22 02:45:38;;;;;;;3.40;2.20;;;;;;;8.30;92.85;98976.78;5083556;28;20518;-51
2021/09/22 02:48:04;;;;;;;3.00;2.22;;;;;;;8.36;92.71;98989.50;5080135;28;20120;-53
2021/09/22 02:50:32;;;;;;;3.53;2.42;;;;;;;8.34;92.68;98983.53;5075758;28;20057;-54
2021/09/22 02:52:58;;;;;;;4.40;2.10;;;;;;;8.33;92.88;98981.81;5068867;28;20044;-53
2021/09/22 02:55:24;;;;;;;3.00;2.00;;;;;;;8.26;93.12;98975.16;5083947;28;20129;-53
2021/09/22 02:57:51;;;;;;;3.92;2.58;;;;;;;8.31;93.14;98978.47;5052492;28;20131;-52
2021/09/22 03:00:17;;;;;;;3.30;2.55;;;;;;;8.30;93.31;98987.13;5069266;28;20474;-54
2021/09/22 03:02:43;;;;;;;2.75;2.20;;;;;;;8.31;93.61;98983.66;5069154;28;20044;-54
2021/09/22 03:05:10;;;;;;;10.60;6.68;;;;;;;8.28;93.40;98973.34;5051975;28;20405;-52
2021/09/22 03:07:36;;;;;;;3.88;2.17;;;;;;;8.19;93.99;98971.94;5068885;28;20036;-55
2021/09/22 03:10:02;;;;;;;5.18;2.33;;;;;;;8.26;93.76;98972.56;5052553;28;20080;-56
2021/09/22 03:12:30;;;;;;;4.57;2.30;;;;;;;8.27;93.49;98969.09;5052707;28;20542;-53
2021/09/22 03:14:57;;;;;;;5.03;2.10;;;;;;;8.18;92.96;98965.06;5070284;28;20044;-54
2021/09/22 03:17:25;;;;;;;3.15;2.33;;;;;;;8.12;92.80;98952.34;5085284;28;20040;-53
2021/09/22 03:19:51;;;;;;;2.92;2.10;;;;;;;8.26;92.96;98976.00;5088889;28;20397;-51
2021/09/22 03:22:18;;;;;;;4.93;2.47;;;;;;;8.22;92.70;98960.63;5089377;28;20515;-53
2021/09/22 03:25:05;;;;;;;4.80;2.50;;;;;;;8.24;93.03;98979.53;5057127;28;20423;-53
2021/09/22 03:27:32;;;;;;;4.40;2.13;;;;;;;8.21;93.43;98970.16;5073992;28;20561;-53
2021/09/22 03:29:58;;;;;;;3.00;2.33;;;;;;;8.25;93.14;98973.47;5052403;28;20044;-54
2021/09/22 03:32:23;;;;;;;3.67;2.22;;;;;;;8.27;92.61;98967.31;5052164;28;20040;-57
2021/09/22 03:34:49;;;;;;;2.92;2.15;;;;;;;8.31;92.32;98975.88;5052342;28;20040;-57
2021/09/22 03:37:15;;;;;;;4.35;2.30;;;;;;;8.28;92.77;98969.00;5069566;28;20071;-56
2021/09/22 03:39:41;;;;;;;5.38;2.10;;;;;;;8.18;93.04;98949.53;5068635;28;20521;-53
2021/09/22 03:42:07;;;;;;;3.47;2.30;;;;;;;8.34;92.76;98971.41;5075283;28;20055;-52
2021/09/22 03:44:32;;;;;;;3.40;2.30;;;;;;;8.37;92.62;98976.47;5089131;28;20419;-57
2021/09/22 03:46:58;;;;;;;3.38;2.35;;;;;;;8.38;92.00;98977.31;5078386;28;20047;-52
2021/09/22 03:49:25;;;;;;;3.85;2.53;;;;;;;8.40;91.88;98971.19;5052051;28;20071;-51
2021/09/22 03:51:50;;;;;;;3.80;2.65;;;;;;;8.39;91.87;98969.50;5068444;28;20041;-52
2021/09/22 03:54:17;;;;;;;4.03;2.83;;;;;;;8.43;92.16;98978.00;5052303;28;20409;-52
2021/09/22 03:56:42;;;;;;;4.18;2.85;;;;;;;8.43;92.07;98967.63;5068993;28;20063;-56
2021/09/22 03:59:09;;;;;;;5.45;3.67;;;;;;;8.48;91.76;98976.91;5068992;28;20504;-57
2021/09/22 04:01:35;;;;;;;4.80;2.85;;;;;;;8.43;91.87;98965.03;5082384;28;20050;-55
2021/09/22 04:04:00;;;;;;;4.32;2.70;;;;;;;8.46;91.77;98970.97;5068984;28;20123;-56
2021/09/22 04:06:26;;;;;;;3.75;2.70;;;;;;;8.45;91.78;98973.63;5072887;28;20095;-54
2021/09/22 04:08:52;;;;;;;4.30;3.05;;;;;;;8.30;91.45;98951.72;5039683;28;20512;-55
2021/09/22 04:11:18;;;;;;;5.00;3.00;;;;;;;8.48;91.41;98973.50;5080019;28;20043;-57
2021/09/22 04:13:45;;;;;;;5.85;2.88;;;;;;;8.50;90.90;98969.94;5073318;28;20133;-54
2021/09/22 04:16:11;;;;;;;5.18;3.33;;;;;;;8.47;90.79;98972.66;5072939;28;20086;-55
2021/09/22 04:18:37;;;;;;;5.25;3.33;;;;;;;8.46;90.47;98962.34;5072611;28;20050;-56
2021/09/22 04:21:05;;;;;;;4.07;2.90;;;;;;;8.47;90.66;98967.50;5072990;28;20051;-52
2021/09/22 04:23:31;;;;;;;4.38;3.17;;;;;;;8.46;90.33;98962.34;5073078;28;20032;-55
2021/09/22 04:25:57;;;;;;;5.53;3.33;;;;;;;8.49;90.04;98970.00;5072600;28;20040;-53
2021/09/22 04:28:23;;;;;;;6.80;3.75;;;;;;;8.36;89.78;98953.25;5072126;28;20044;-55
2021/09/22 04:31:08;;;;;;;5.68;3.97;;;;;;;8.50;90.59;98975.13;5079368;28;20036;-53
2021/09/22 04:33:52;;;;;;;5.55;3.22;;;;;;;8.51;90.77;98981.16;5094119;28;20047;-51
2021/09/22 04:36:36;;;;;;;7.43;3.60;;;;;;;8.51;91.03;98978.56;5091440;28;20039;-51
2021/09/22 04:39:20;;;;;;;7.18;3.97;;;;;;;8.55;90.21;98976.69;5072748;28;20050;-55
2021/09/22 04:42:05;;;;;;;5.35;3.78;;;;;;;8.48;90.61;98961.38;5083341;28;20043;-52
2021/09/22 04:44:50;;;;;;;6.05;3.55;;;;;;;8.58;90.17;98969.69;5085555;28;20614;-55
2021/09/22 04:47:36;;;;;;;6.00;3.50;;;;;;;8.58;90.43;98968.84;5089925;28;20533;-50
2021/09/22 04:50:21;;;;;;;7.28;3.97;;;;;;;8.65;89.75;98978.03;5075937;28;20040;-55
2021/09/22 04:53:05;;;;;;;8.43;5.13;;;;;;;8.63;89.71;98975.53;5073005;28;20044;-56
2021/09/22 04:55:49;;;;;;;5.60;3.40;;;;;;;8.65;89.83;98971.13;5073212;28;20060;-56
2021/09/22 04:58:34;;;;;;;5.32;3.58;;;;;;;8.63;90.18;98967.75;5091652;28;20028;-58
2021/09/22 05:01:18;;;;;;;8.52;3.53;;;;;;;8.55;89.87;98948.19;5084516;28;20070;-57
2021/09/22 05:04:03;;;;;;;7.05;3.47;;;;;;;8.72;89.77;98974.31;5083518;28;20147;-58
2021/09/22 05:06:47;;;;;;;9.45;3.72;;;;;;;8.69;89.88;98964.91;5071163;28;20443;-60
2021/09/22 05:09:32;;;;;;;4.97;3.35;;;;;;;8.70;89.23;98971.78;5071411;28;20512;-58
2021/09/22 05:12:16;;;;;;;6.97;4.18;;;;;;;8.66;89.53;98966.78;5073437;28;20048;-63
2021/09/22 05:15:00;;;;;;;8.52;3.50;;;;;;;8.67;89.46;98971.06;5092127;28;20525;-61
2021/09/22 05:17:44;;;;;;;6.68;3.63;;;;;;;8.68;89.67;98968.44;5093970;28;20067;-59
2021/09/22 05:20:29;;;;;;;9.07;5.97;;;;;;;8.69;89.13;98964.91;5080266;28;20519;-56
2021/09/22 05:23:14;;;;;;;6.65;3.72;;;;;;;8.67;89.38;98969.31;5074333;28;20041;-62
2021/09/22 05:25:58;;;;;;;10.85;4.82;;;;;;;8.68;90.13;98965.84;5072545;28;20048;-59
2021/09/22 05:28:42;;;;;;;6.03;3.38;;;;;;;8.70;90.03;98969.19;5073618;28;20089;-60
2021/09/22 05:31:26;;;;;;;4.43;3.03;;;;;;;8.68;90.45;98963.25;5071342;28;20076;-59
2021/09/22 05:34:10;;;;;;;6.47;3.78;;;;;;;8.71;90.37;98962.28;5075302;28;20062;-62
2021/09/22 05:36:55;;;;;;;5.40;3.47;;;;;;;8.73;91.01;98958.72;5074435;28;20044;-58
2021/09/22 05:39:39;;;;;;;8.38;4.70;;;;;;;8.60;91.03;98938.50;5072080;28;20040;-55
2021/09/22 05:42:23;;;;;;;14.13;7.32;;;;;;;8.72;91.04;98962.22;5072826;28;20040;-58
2021/09/22 05:45:08;;;;;;;7.53;3.55;;;;;;;8.72;91.24;98972.59;5072152;28;20112;-57
2021/09/22 05:47:52;;;;;;;7.43;3.25;;;;;;;8.70;91.70;98964.00;5072090;28;20040;-60
2021/09/22 05:50:57;;;;;;;7.20;5.10;;;;;;;8.72;91.65;98974.31;5049639;28;20067;-58
2021/09/22 05:53:43;;;;;;;8.50;5.07;;;;;;;8.72;91.87;98967.41;5049561;28;20048;-58
2021/09/22 05:56:28;;;;;;;6.90;3.17;;;;;;;8.73;91.33;98971.69;5070787;28;20123;-58
2021/09/22 05:59:12;;;;;;;5.00;3.40;;;;;;;8.73;91.89;98974.28;5075483;28;20044;-59
2021/09/22 06:01:56;;;;;;;5.85;3.67;;;;;;;8.73;91.32;98968.25;5070640;28;20040;-61
2021/09/22 06:05:00;;;;;;;7.75;3.95;;;;;;;8.73;91.12;98969.09;5028759;28;20049;-64
2021/09/22 06:07:26;;;;;;;7.10;3.47;;;;;;;8.73;91.77;98974.28;5028478;28;20060;-60
2021/09/22 06:10:13;;;;;;;8.63;4.57;;;;;;;8.75;91.16;98971.59;5047237;28;20542;-62
2021/09/22 06:13:03;;;;;;;5.70;3.53;;;;;;;8.64;91.90;98955.63;5077070;28;20121;-62
2021/09/22 06:15:29;;;;;;;6.32;3.33;;;;;;;8.70;91.90;98971.78;5077166;28;20048;-61
2021/09/22 06:17:59;;;;;;;8.07;3.63;;;;;;;8.73;91.96;98973.44;5067580;28;20045;-56
2021/09/22 06:20:25;;;;;;;5.40;3.50;;;;;;;8.72;91.82;98967.41;5069222;28;20032;-60
2021/09/22 06:22:50;;;;;;;5.53;3.50;;;;;;;8.83;91.96;98974.75;5069988;28;20032;-59
2021/09/22 06:25:16;;;;;;;8.07;3.40;;;;;;;8.67;92.33;98953.78;5071522;28;20423;-58
2021/09/22 06:27:43;;;;;;;6.90;3.72;;;;;;;8.79;92.01;98983.56;5070694;28;20055;-60
2021/09/22 06:30:11;;;;;;;6.55;3.50;;;;;;;8.77;92.44;98985.34;5070969;28;20072;-59
2021/09/22 06:32:38;;;;;;;9.30;3.85;;;;;;;8.79;92.34;98984.38;5053310;28;20064;-56
2021/09/22 06:35:09;;;;;;;6.47;3.53;;;;;;;8.84;92.48;98987.69;5071217;28;20497;-58
2021/09/22 06:37:52;;;;;;;7.47;3.67;;;;;;;8.89;92.08;98985.75;5053074;28;20066;-59
2021/09/22 06:40:22;;;;;;;5.25;3.10;;;;;;;8.93;92.24;98987.31;5054686;28;20401;-58
2021/09/22 06:42:49;;;;;;;5.63;3.25;;;;;;;8.84;92.33;98994.59;5089911;28;20062;-59
2021/09/22 06:45:16;;;;;;;8.07;3.97;;;;;;;8.89;92.26;99000.44;5089841;28;20072;-58
2021/09/22 06:47:41;;;;;;;4.88;3.40;;;;;;;8.92;92.70;98993.38;5091057;28;20418;-59
2021/09/22 06:50:08;;;;;;;6.97;3.50;;;;;;;8.91;92.88;98985.66;5089718;28;20055;-58
2021/09/22 06:52:35;;;;;;;6.78;3.47;;;;;;;8.95;92.70;98999.38;5091053;28;20392;-56
2021/09/22 06:55:01;;;;;;;5.80;3.40;;;;;;;8.95;93.60;98995.00;5090989;28;20127;-56
2021/09/22 06:57:27;;;;;;;6.30;3.45;;;;;;;9.01;93.14;98994.78;5089841;28;20089;-57
2021/09/22 06:59:53;;;;;;;4.93;3.58;;;;;;;9.11;92.46;98996.09;5090869;28;20036;-58
2021/09/22 07:02:18;;;;;;;8.75;4.03;;;;;;;9.15;92.78;98999.44;5090789;28;20069;-59
2021/09/22 07:04:44;;;;;;;6.90;3.33;;;;;;;9.22;92.18;98995.66;5090499;28;20047;-58
2021/09/22 07:07:10;;;;;;;5.85;3.33;;;;;;;9.24;92.17;99002.50;5089120;28;20048;-56
2021/09/22 07:09:36;;;;;;;5.30;3.28;;;;;;;9.25;91.79;98991.22;5090461;28;20432;-60
2021/09/22 07:12:03;;;;;;;9.63;5.50;;;;;;;9.37;91.62;99009.81;5072380;28;20036;-55
2021/09/22 07:14:29;;;;;;;6.88;4.60;;;;;;;9.35;91.34;98997.75;5070316;28;20059;-60
2021/09/22 07:16:54;;;;;;;7.78;3.90;;;;;;;9.33;90.91;98994.34;5070259;28;20044;-57
2021/09/22 07:19:20;;;;;;;9.65;5.50;;;;;;;9.31;91.19;98996.19;5070293;28;20044;-57
2021/09/22 07:21:46;;;;;;;8.73;5.18;;;;;;;9.37;91.09;99004.63;5070422;28;20044;-55
2021/09/22 07:24:12;;;;;;;7.45;4.82;;;;;;;9.35;90.64;99002.91;5070064;28;20040;-58
2021/09/22 07:26:38;;;;;;;13.20;7.03;;;;;;;9.38;90.22;99003.69;5070161;28;20059;-58
2021/09/22 07:29:05;;;;;;;3.92;2.97;;;;;;;9.38;90.28;99004.53;5070132;28;20044;-58
2021/09/22 07:31:31;;;;;;;9.75;4.05;;;;;;;9.30;89.91;99004.84;5069080;28;20048;-57
2021/09/22 07:33:57;;;;;;;9.25;3.05;;;;;;;9.35;90.20;99008.09;5068779;28;20047;-58
2021/09/22 07:36:23;;;;;;;18.08;13.57;;;;;;;9.35;90.31;99005.53;5068800;28;20048;-58
2021/09/22 07:38:49;;;;;;;10.55;5.95;;;;;;;9.35;90.05;99002.91;5069154;28;20043;-58
2021/09/22 07:41:15;;;;;;;8.02;3.78;;;;;;;9.32;90.22;99005.63;5079326;28;20131;-56
2021/09/22 07:43:41;;;;;;;6.80;4.03;;;;;;;9.32;90.06;99003.03;5089040;28;20063;-58
2021/09/22 07:46:07;;;;;;;6.43;3.05;;;;;;;9.36;89.99;99008.97;5090364;28;20043;-59
2021/09/22 07:48:34;;;;;;;7.60;5.00;;;;;;;9.38;89.67;99007.13;5090113;28;20454;-59
2021/09/22 07:51:00;;;;;;;6.30;3.38;;;;;;;9.42;90.08;99013.88;5090245;28;20048;-59
2021/09/22 07:53:26;;;;;;;6.13;3.17;;;;;;;9.39;89.50;99006.22;5088884;28;20052;-57
2021/09/22 07:55:51;;;;;;;5.35;3.00;;;;;;;9.42;89.36;99016.47;5088737;28;20039;-58
2021/09/22 07:58:18;;;;;;;5.43;3.30;;;;;;;9.45;89.63;99010.31;5090026;28;20043;-62
2021/09/22 08:00:45;;;;;;;5.35;3.53;;;;;;;9.46;89.27;98996.47;5089998;28;20032;-59
2021/09/22 08:03:11;;;;;;;5.30;3.17;;;;;;;9.58;89.69;99011.50;5090173;28;20458;-58
2021/09/22 08:05:38;;;;;;;6.35;2.85;;;;;;;9.65;89.02;99007.75;5089842;28;20052;-59
2021/09/22 08:08:08;;;;;;;5.53;2.85;;;;;;;9.69;88.77;99017.09;5090109;28;20036;-60
2021/09/22 08:10:35;;;;;;;8.13;3.53;;;;;;;9.70;87.88;99014.44;5085279;28;20032;-55
2021/09/22 08:13:00;;;;;;;6.03;3.13;;;;;;;9.71;88.31;99020.50;5069741;28;20072;-57
2021/09/22 08:15:26;;;;;;;5.38;3.10;;;;;;;9.67;88.86;99021.53;5068488;28;20106;-57
2021/09/22 08:17:52;;;;;;;6.50;3.85;;;;;;;9.64;88.48;99011.25;5085377;28;20102;-58
2021/09/22 08:20:17;;;;;;;5.97;2.58;;;;;;;9.58;87.93;99024.47;5051757;28;20074;-58
2021/09/22 08:22:45;;;;;;;10.10;4.18;;;;;;;9.55;88.26;99024.63;5068385;28;20040;-59
2021/09/22 08:25:11;;;;;;;17.60;9.05;;;;;;;9.50;88.61;99014.44;5069716;28;20040;-57
2021/09/22 08:27:37;;;;;;;8.85;3.38;;;;;;;9.58;88.63;99029.66;5069571;28;20419;-57
2021/09/22 08:30:07;;;;;;;6.47;3.47;;;;;;;9.60;87.67;99020.94;5084927;28;20041;-55
2021/09/22 08:32:33;;;;;;;7.45;3.30;;;;;;;9.54;87.49;99013.38;5069477;28;20554;-54
2021/09/22 08:34:59;;;;;;;4.47;3.42;;;;;;;9.57;87.57;99015.03;5069694;28;20037;-55
2021/09/22 08:37:24;;;;;;;6.80;2.45;;;;;;;9.60;87.37;99005.34;5069485;28;20109;-55
2021/09/22 08:39:50;;;;;;;8.63;4.38;;;;;;;9.79;86.90;99015.81;5069496;28;20534;-54
2021/09/22 08:42:16;;;;;;;11.10;5.90;;;;;;;9.89;86.89;99013.69;5103125;28;20522;-57
2021/09/22 08:44:43;;;;;;;6.32;2.90;;;;;;;9.95;86.46;99018.59;5089755;28;20055;-59
2021/09/22 08:47:10;;;;;;;7.20;2.83;;;;;;;9.97;86.60;99022.84;5088665;28;20039;-60
2021/09/22 08:49:36;;;;;;;5.80;3.75;;;;;;;9.99;86.29;99023.63;5089426;28;20040;-59
2021/09/22 08:52:03;;;;;;;6.53;3.30;;;;;;;9.88;85.97;99001.63;5092967;28;20043;-52
2021/09/22 08:54:29;;;;;;;6.43;3.42;;;;;;;10.02;86.18;99025.22;5094169;28;20062;-52
2021/09/22 08:56:55;;;;;;;3.80;2.55;;;;;;;9.99;85.65;99017.59;5094279;28;20507;-54
2021/09/22 08:59:21;;;;;;;5.95;3.28;;;;;;;10.06;85.61;99031.97;5092031;28;20035;-55
2021/09/22 09:02:09;;;;;;;5.38;2.88;;;;;;;10.08;85.38;99025.81;5093390;28;20048;-56
2021/09/22 09:04:36;;;;;;;3.58;2.60;;;;;;;10.10;84.74;99026.59;5075029;28;20126;-58
2021/09/22 09:07:02;;;;;;;8.45;4.10;;;;;;;10.13;84.93;99028.22;5092956;28;20542;-55
2021/09/22 09:09:39;;;;;;;7.18;3.08;;;;;;;10.12;85.09;99026.53;5093132;28;20075;-56
2021/09/22 09:12:23;;;;;;;5.50;2.92;;;;;;;10.17;84.33;99029.81;5092674;28;20091;-53
2021/09/22 09:14:57;;;;;;;4.65;2.60;;;;;;;10.20;84.31;99033.09;5092757;28;20036;-54
2021/09/22 09:17:46;;;;;;;4.03;2.67;;;;;;;10.26;84.01;99032.00;5092846;28;20085;-56
2021/09/22 09:20:16;;;;;;;4.55;3.03;;;;;;;10.32;83.96;99036.06;5091528;28;20095;-55
2021/09/22 09:22:53;;;;;;;7.05;3.80;;;;;;;10.32;82.96;99034.31;5091466;28;20040;-57
2021/09/22 09:25:26;;;;;;;4.57;3.08;;;;;;;10.33;83.40;99030.81;5092591;28;20134;-57
2021/09/22 09:27:52;;;;;;;4.18;2.55;;;;;;;10.34;83.06;99034.28;5092556;28;20127;-55
2021/09/22 09:30:21;;;;;;;8.10;4.70;;;;;;;10.32;83.57;99042.13;5092272;28;20044;-56
2021/09/22 09:32:46;;;;;;;4.07;2.78;;;;;;;10.27;83.91;99031.09;5074475;28;20039;-58
2021/09/22 09:35:14;;;;;;;4.32;2.67;;;;;;;10.30;83.90;99035.31;5092497;28;20537;-59
2021/09/22 09:37:48;;;;;;;4.40;3.08;;;;;;;10.29;84.31;99036.22;5092207;28;20122;-57
2021/09/22 09:40:35;;;;;;;6.55;3.10;;;;;;;10.31;84.32;99037.84;5092490;28;20036;-59
2021/09/22 09:43:06;;;;;;;5.60;3.28;;;;;;;10.29;84.31;99038.81;5092250;28;20451;-59
2021/09/22 09:45:40;;;;;;;6.22;3.55;;;;;;;10.25;84.29;99040.72;5092231;28;20040;-58
2021/09/22 09:48:08;;;;;;;6.43;3.30;;;;;;;10.29;83.75;99038.81;5092043;28;20134;-57
2021/09/22 09:50:41;;;;;;;4.45;2.90;;;;;;;10.30;84.00;99043.97;5091845;28;20063;-55
2021/09/22 09:53:07;;;;;;;8.55;5.18;;;;;;;10.29;83.73;99044.03;5090447;28;20043;-59
2021/09/22 09:55:37;;;;;;;7.30;3.58;;;;;;;10.31;83.52;99039.63;5091406;28;20036;-56
2021/09/22 09:58:05;;;;;;;6.63;3.08;;;;;;;10.28;83.44;99042.31;5091929;28;20067;-57
2021/09/22 10:00:37;;;;;;;7.90;5.35;;;;;;;10.25;83.43;99042.47;5090503;28;20046;-57
2021/09/22 10:03:13;;;;;;;5.80;3.50;;;;;;;10.26;82.85;99039.78;5090876;28;20079;-54
2021/09/22 10:05:39;;;;;;;6.32;3.88;;;;;;;10.28;83.20;99042.31;5091707;28;20102;-57
2021/09/22 10:08:06;;;;;;;5.22;3.75;;;;;;;10.28;82.90;99042.31;5090424;28;20075;-56
2021/09/22 10:10:32;;;;;;;4.47;2.97;;;;;;;10.32;82.74;99043.88;5091725;28;20073;-56
2021/09/22 10:12:59;;;;;;;6.75;3.97;;;;;;;10.34;82.52;99047.25;5074267;28;20048;-57
2021/09/22 10:15:28;;;;;;;15.18;10.90;;;;;;;10.35;82.37;99043.75;5070359;28;20194;-54
2021/09/22 10:17:54;;;;;;;12.35;8.40;;;;;;;10.39;82.47;99053.94;5071328;28;20067;-57
2021/09/22 10:20:21;;;;;;;5.35;4.18;;;;;;;10.41;82.73;99051.28;5069544;28;20149;-55
2021/09/22 10:22:46;;;;;;;4.78;4.03;;;;;;;10.43;82.76;99045.09;5071451;28;20519;-55
2021/09/22 10:25:13;;;;;;;7.03;4.07;;;;;;;10.39;82.31;99040.09;5069719;28;20048;-54
2021/09/22 10:27:39;;;;;;;4.63;2.95;;;;;;;10.45;82.50;99047.63;5069777;28;20535;-58
2021/09/22 10:30:07;;;;;;;7.40;4.60;;;;;;;10.42;82.44;99051.19;5069577;28;20044;-60
2021/09/22 10:32:39;;;;;;;8.98;4.82;;;;;;;10.42;83.00;99052.94;5071394;28;20411;-57
2021/09/22 10:35:21;;;;;;;14.68;7.45;;;;;;;10.43;82.04;99058.09;5086265;28;20037;-57
2021/09/22 10:37:47;;;;;;;10.25;4.93;;;;;;;10.43;82.44;99052.91;5071013;28;20127;-54
2021/09/22 10:40:16;;;;;;;4.95;3.00;;;;;;;10.40;82.73;99054.78;5069713;28;20037;-51
2021/09/22 10:42:43;;;;;;;3.58;2.58;;;;;;;10.37;82.67;99050.56;5053035;28;20036;-56
2021/09/22 10:45:20;;;;;;;8.25;3.00;;;;;;;10.41;82.19;99053.88;5069225;28;20138;-56
2021/09/22 10:47:47;;;;;;;5.00;2.65;;;;;;;10.38;81.94;99051.41;5070657;28;20594;-53
2021/09/22 10:50:41;;;;;;;7.00;3.63;;;;;;;10.44;81.31;99064.97;5070540;28;20147;-57
2021/09/22 10:53:32;;;;;;;3.75;2.33;;;;;;;10.35;80.71;99056.75;5069397;28;20507;-56
2021/09/22 10:56:06;;;;;;;4.47;3.08;;;;;;;10.37;80.83;99057.50;5070112;28;20037;-56
2021/09/22 10:58:38;;;;;;;4.35;2.65;;;;;;;10.38;81.02;99061.78;5070311;28;20036;-56
2021/09/22 11:01:04;;;;;;;7.65;4.22;;;;;;;10.34;80.99;99057.66;5070350;28;20074;-57
2021/09/22 11:03:45;;;;;;;4.40;2.50;;;;;;;10.37;81.30;99060.94;5069142;28;20037;-56
2021/09/22 11:09:13;;;;;;;4.78;3.20;;;;;;;10.46;80.94;99060.56;5070055;28;20068;-54
2021/09/22 11:11:58;;;;;;;3.95;2.05;;;;;;;10.49;81.32;99062.19;5058546;28;20035;-57
2021/09/22 11:14:27;;;;;;;5.90;2.70;;;;;;;10.52;80.73;99069.84;5090223;28;20123;-56
2021/09/22 11:17:13;;;;;;;7.03;4.13;;;;;;;10.51;81.14;99069.00;5090460;28;20047;-54
2021/09/22 11:20:05;;;;;;;4.80;3.63;;;;;;;10.48;81.05;99063.09;5090198;28;20096;-55
2021/09/22 11:22:33;;;;;;;4.45;2.95;;;;;;;10.50;81.12;99069.91;5090627;28;20032;-57
2021/09/22 11:25:07;;;;;;;4.53;2.78;;;;;;;10.46;81.53;99062.31;5089380;28;20035;-55
2021/09/22 11:27:33;;;;;;;6.03;2.90;;;;;;;10.46;81.67;99062.31;5072940;28;20048;-57
2021/09/22 11:30:02;;;;;;;4.80;2.40;;;;;;;10.45;81.09;99058.88;5089523;28;20499;-57
2021/09/22 11:32:29;;;;;;;4.63;2.80;;;;;;;10.44;80.68;99067.59;5089410;28;20503;-54
2021/09/22 11:35:07;;;;;;;4.30;2.80;;;;;;;10.44;80.92;99067.59;5072652;28;20074;-53
2021/09/22 11:37:43;;;;;;;6.82;3.55;;;;;;;10.50;81.37;99074.25;5089302;28;20097;-58
2021/09/22 11:40:10;;;;;;;6.20;4.15;;;;;;;10.52;81.35;99068.06;5089305;28;20112;-55
2021/09/22 11:42:36;;;;;;;7.32;5.25;;;;;;;10.54;80.63;99057.63;5089347;28;20036;-56
2021/09/22 11:45:02;;;;;;;14.82;8.88;;;;;;;10.54;80.70;99062.81;5072742;28;20044;-55
2021/09/22 11:47:28;;;;;;;5.20;3.10;;;;;;;10.56;81.20;99071.41;5089381;28;20141;-57
2021/09/22 11:49:54;;;;;;;5.75;3.13;;;;;;;10.51;80.72;99069.00;5090552;28;20036;-56
2021/09/22 11:52:21;;;;;;;4.60;3.15;;;;;;;10.54;80.85;99068.03;5090010;28;20043;-55
2021/09/22 11:54:49;;;;;;;2.78;2.30;;;;;;;10.51;80.54;99060.38;5089909;28;20142;-55
2021/09/22 11:57:17;;;;;;;7.68;2.88;;;;;;;10.56;80.03;99074.84;5090109;28;20129;-56
2021/09/22 11:59:45;;;;;;;4.03;2.50;;;;;;;10.55;80.78;99067.13;5089807;28;20036;-56